Temperatur und Luftfeuchte

Temperatur und Luftfeuchte

Die letzten 100 Messwerte

Nummer Datum und Zeit Sensor ID Temperatur in Celsius gef├╝hlte Temperatur Luftfeuchte in %
17642 2019-11-20 23:27:49 ESP12E-S1 3.30 2.29 99.90
17641 2019-11-20 22:59:38 ESP12E-S1 3.40 2.40 99.90
17640 2019-11-20 22:31:25 ESP12E-S1 3.40 2.40 99.90
17639 2019-11-20 22:03:27 ESP12E-S1 3.60 2.62 99.90
17638 2019-11-20 21:35:04 ESP12E-S1 3.60 2.62 99.90
17637 2019-11-20 21:06:51 ESP12E-S1 3.70 2.73 99.90
17636 2019-11-20 20:38:30 ESP12E-S1 3.90 2.95 99.90
17635 2019-11-20 20:10:22 ESP12E-S1 4.20 3.28 99.90
17634 2019-11-20 19:42:10 ESP12E-S1 4.60 3.72 99.90
17633 2019-11-20 19:13:55 ESP12E-S1 4.80 3.94 99.90
17632 2019-11-20 18:45:43 ESP12E-S1 5.00 4.16 99.90
17631 2019-11-20 18:17:22 ESP12E-S1 5.10 4.27 99.90
17630 2019-11-20 17:49:13 ESP12E-S1 5.30 4.49 99.90
17629 2019-11-20 17:21:00 ESP12E-S1 5.60 4.82 99.90
17628 2019-11-20 16:52:46 ESP12E-S1 5.80 5.04 99.90
17627 2019-11-20 16:24:35 ESP12E-S1 6.30 5.59 99.90
17626 2019-11-20 15:56:28 ESP12E-S1 7.20 6.47 95.50
17625 2019-11-20 15:28:34 ESP12E-S1 10.20 9.27 76.30
17624 2019-11-20 14:59:48 ESP12E-S1 7.60 7.00 98.80
17623 2019-11-20 14:31:51 ESP12E-S1 9.70 9.05 89.00
17622 2019-11-20 14:03:25 ESP12E-S1 9.90 9.34 91.60
17621 2019-11-20 13:35:14 ESP12E-S1 9.20 8.78 99.90
17620 2019-11-20 13:06:54 ESP12E-S1 8.40 7.90 99.90
17619 2019-11-20 12:38:41 ESP12E-S1 8.60 8.12 99.90
17618 2019-11-20 12:10:46 ESP12E-S1 10.70 10.32 95.40
17617 2019-11-20 11:42:02 ESP12E-S1 8.40 7.90 99.90
17616 2019-11-20 11:13:41 ESP12E-S1 7.50 6.91 99.90
17615 2019-11-20 10:45:20 ESP12E-S1 6.60 5.92 99.90
17614 2019-11-20 10:16:56 ESP12E-S1 5.20 4.38 99.90
17613 2019-11-20 09:48:46 ESP12E-S1 4.20 3.28 99.90
17612 2019-11-20 09:20:22 ESP12E-S1 3.60 2.62 99.90
17611 2019-11-20 08:52:08 ESP12E-S1 3.40 2.40 99.90
17610 2019-11-20 08:23:55 ESP12E-S1 3.30 2.29 99.90
17609 2019-11-20 07:55:39 ESP12E-S1 3.10 2.07 99.90
17608 2019-11-20 07:27:24 ESP12E-S1 3.00 1.96 99.90
17607 2019-11-20 06:59:03 ESP12E-S1 3.00 1.96 99.90
17606 2019-11-20 06:30:54 ESP12E-S1 3.10 2.07 99.90
17605 2019-11-20 06:02:39 ESP12E-S1 3.10 2.07 99.90
17604 2019-11-20 05:34:26 ESP12E-S1 2.90 1.85 99.90
17603 2019-11-20 05:06:11 ESP12E-S1 2.50 1.41 99.90
17602 2019-11-20 04:37:57 ESP12E-S1 2.30 1.19 99.90
17601 2019-11-20 04:09:44 ESP12E-S1 2.50 1.41 99.90
17600 2019-11-20 03:41:33 ESP12E-S1 2.80 1.74 99.90
17599 2019-11-20 03:13:11 ESP12E-S1 3.20 2.18 99.90
17598 2019-11-20 02:45:02 ESP12E-S1 3.30 2.29 99.90
17597 2019-11-20 02:16:49 ESP12E-S1 3.70 2.73 99.90
17596 2019-11-20 01:48:39 ESP12E-S1 4.00 3.06 99.90
17595 2019-11-20 01:20:26 ESP12E-S1 4.00 3.06 99.90
17594 2019-11-20 00:52:11 ESP12E-S1 3.80 2.84 99.90
17593 2019-11-20 00:23:54 ESP12E-S1 3.80 2.84 99.90
17592 2019-11-19 23:55:34 ESP12E-S1 3.70 2.73 99.90
17591 2019-11-19 23:27:15 ESP12E-S1 3.60 2.62 99.90
17590 2019-11-19 22:59:03 ESP12E-S1 3.80 2.84 99.90
17589 2019-11-19 22:30:44 ESP12E-S1 4.10 3.17 99.90
17588 2019-11-19 22:02:45 ESP12E-S1 4.10 3.17 99.90
17587 2019-11-19 21:34:41 ESP12E-S1 4.30 3.39 99.90
17586 2019-11-19 21:06:23 ESP12E-S1 4.60 3.72 99.90
17585 2019-11-19 20:38:11 ESP12E-S1 4.90 4.05 99.90
17584 2019-11-19 20:10:00 ESP12E-S1 5.10 4.27 99.90
17583 2019-11-19 19:41:47 ESP12E-S1 5.10 4.27 99.90
17582 2019-11-19 19:13:25 ESP12E-S1 5.20 4.38 99.90
17581 2019-11-19 18:45:15 ESP12E-S1 5.40 4.60 99.90
17580 2019-11-19 18:17:02 ESP12E-S1 5.60 4.82 99.90
17579 2019-11-19 17:48:40 ESP12E-S1 5.80 5.04 99.90
17578 2019-11-19 17:20:30 ESP12E-S1 6.00 5.26 99.90
17577 2019-11-19 16:52:18 ESP12E-S1 6.50 5.81 99.90
17576 2019-11-19 16:24:13 ESP12E-S1 7.70 7.13 99.90
17575 2019-11-19 15:56:13 ESP12E-S1 9.70 9.08 90.00
17574 2019-11-19 15:27:57 ESP12E-S1 12.50 12.04 85.70
17573 2019-11-19 14:59:28 ESP12E-S1 8.90 8.45 99.90
17572 2019-11-19 14:31:10 ESP12E-S1 7.70 7.13 99.90
17571 2019-11-19 14:03:00 ESP12E-S1 8.40 7.90 99.90
17570 2019-11-19 13:34:38 ESP12E-S1 7.70 7.13 99.90
17569 2019-11-19 13:06:29 ESP12E-S1 8.20 7.68 99.90
17568 2019-11-19 12:38:17 ESP12E-S1 8.90 8.45 99.90
17567 2019-11-19 12:09:59 ESP12E-S1 9.00 8.56 99.90
17566 2019-11-19 11:41:26 ESP12E-S1 7.70 7.13 99.90
17565 2019-11-19 11:13:02 ESP12E-S1 6.20 5.48 99.90
17564 2019-11-19 10:44:36 ESP12E-S1 5.30 4.49 99.90
17563 2019-11-19 10:16:20 ESP12E-S1 4.80 3.94 99.90
17562 2019-11-19 09:48:15 ESP12E-S1 4.40 3.50 99.90
17561 2019-11-19 09:19:55 ESP12E-S1 4.20 3.28 99.90
17560 2019-11-19 08:51:41 ESP12E-S1 4.10 3.17 99.90
17559 2019-11-19 08:23:26 ESP12E-S1 4.00 3.06 99.90
17558 2019-11-19 07:55:13 ESP12E-S1 3.90 2.95 99.90
17557 2019-11-19 07:27:00 ESP12E-S1 3.80 2.84 99.90
17556 2019-11-19 06:58:46 ESP12E-S1 3.80 2.84 99.90
17555 2019-11-19 06:30:33 ESP12E-S1 3.80 2.84 99.90
17554 2019-11-19 06:02:20 ESP12E-S1 3.80 2.84 99.90
17553 2019-11-19 05:34:06 ESP12E-S1 3.80 2.84 99.90
17552 2019-11-19 05:05:53 ESP12E-S1 3.80 2.84 99.90
17551 2019-11-19 04:37:41 ESP12E-S1 3.70 2.73 99.90
17550 2019-11-19 04:09:28 ESP12E-S1 3.60 2.62 99.90
17549 2019-11-19 03:41:10 ESP12E-S1 3.50 2.51 99.90
17548 2019-11-19 03:13:11 ESP12E-S1 3.40 2.40 99.90
17547 2019-11-19 02:44:52 ESP12E-S1 3.30 2.29 99.90
17546 2019-11-19 02:16:37 ESP12E-S1 3.20 2.18 99.90
17545 2019-11-19 01:48:23 ESP12E-S1 3.10 2.07 99.90
17544 2019-11-19 01:20:12 ESP12E-S1 3.00 1.96 99.90
17543 2019-11-19 00:52:01 ESP12E-S1 3.00 1.96 99.90